sensor_id;sensor_type;location;lat;lon;timestamp;pressure;altitude;pressure_sealevel;temperature;humidity
54022;BME280;39936;51.058;17.220;2023-06-01T00:02:45;101910.83;;;9.89;94.69
54022;BME280;39936;51.058;17.220;2023-06-01T00:05:59;101923.95;;;9.96;94.88
54022;BME280;39936;51.058;17.220;2023-06-01T00:09:36;101924.02;;;9.95;95.09
54022;BME280;39936;51.058;17.220;2023-06-01T00:13:13;101922.68;;;9.92;95.50
54022;BME280;39936;51.058;17.220;2023-06-01T00:16:32;101917.03;;;9.90;96.95
54022;BME280;39936;51.058;17.220;2023-06-01T00:24:10;101913.80;;;10.01;98.27
54022;BME280;39936;51.058;17.220;2023-06-01T00:27:28;101910.00;;;9.97;98.76
54022;BME280;39936;51.058;17.220;2023-06-01T00:31:08;101915.20;;;9.91;98.57
54022;BME280;39936;51.058;17.220;2023-06-01T00:34:43;101912.16;;;9.86;98.44
54022;BME280;39936;51.058;17.220;2023-06-01T00:38:35;101908.82;;;9.78;99.93
54022;BME280;39936;51.058;17.220;2023-06-01T00:41:51;101908.45;;;9.71;100.00
54022;BME280;39936;51.058;17.220;2023-06-01T00:45:09;101913.18;;;9.69;100.00
54022;BME280;39936;51.058;17.220;2023-06-01T00:48:30;101914.01;;;9.66;100.00
54022;BME280;39936;51.058;17.220;2023-06-01T00:51:55;101914.76;;;9.61;100.00
54022;BME280;39936;51.058;17.220;2023-06-01T00:55:13;101909.91;;;9.59;100.00
54022;BME280;39936;51.058;17.220;2023-06-01T01:02:21;101908.23;;;9.52;100.00
54022;BME280;39936;51.058;17.220;2023-06-01T01:05:41;101906.16;;;9.49;100.00
54022;BME280;39936;51.058;17.220;2023-06-01T01:16:17;101902.39;;;9.46;100.00
54022;BME280;39936;51.058;17.220;2023-06-01T01:30:22;101890.04;;;9.20;100.00
54022;BME280;39936;51.058;17.220;2023-06-01T01:33:41;101901.25;;;9.24;100.00
54022;BME280;39936;51.058;17.220;2023-06-01T01:36:56;101900.47;;;9.20;100.00
54022;BME280;39936;51.058;17.220;2023-06-01T01:40:21;101901.76;;;9.17;100.00
54022;BME280;39936;51.058;17.220;2023-06-01T01:43:45;101896.95;;;9.14;100.00
54022;BME280;39936;51.058;17.220;2023-06-01T01:51:13;101891.80;;;9.02;100.00
54022;BME280;39936;51.058;17.220;2023-06-01T01:55:07;101882.55;;;9.00;100.00
54022;BME280;39936;51.058;17.220;2023-06-01T01:58:55;101885.08;;;9.05;100.00
54022;BME280;39936;51.058;17.220;2023-06-01T02:02:32;101883.26;;;9.05;100.00
54022;BME280;39936;51.058;17.220;2023-06-01T02:05:45;101874.77;;;9.05;100.00
54022;BME280;39936;51.058;17.220;2023-06-01T02:09:10;101874.92;;;9.02;100.00
54022;BME280;39936;51.058;17.220;2023-06-01T02:12:23;101873.73;;;9.00;100.00
54022;BME280;39936;51.058;17.220;2023-06-01T02:15:59;101878.28;;;8.97;100.00
54022;BME280;39936;51.058;17.220;2023-06-01T02:19:12;101875.80;;;8.93;100.00
54022;BME280;39936;51.058;17.220;2023-06-01T02:22:40;101876.34;;;8.88;100.00
54022;BME280;39936;51.058;17.220;2023-06-01T02:26:12;101867.52;;;8.79;100.00
54022;BME280;39936;51.058;17.220;2023-06-01T02:29:32;101870.55;;;8.80;100.00
54022;BME280;39936;51.058;17.220;2023-06-01T02:33:07;101870.29;;;8.80;100.00
54022;BME280;39936;51.058;17.220;2023-06-01T02:36:42;101864.98;;;8.80;100.00
54022;BME280;39936;51.058;17.220;2023-06-01T02:40:08;101862.55;;;8.79;100.00
54022;BME280;39936;51.058;17.220;2023-06-01T02:43:23;101865.78;;;8.81;100.00
54022;BME280;39936;51.058;17.220;2023-06-01T02:46:40;101862.81;;;8.83;100.00
54022;BME280;39936;51.058;17.220;2023-06-01T02:50:09;101856.13;;;8.84;100.00
54022;BME280;39936;51.058;17.220;2023-06-01T02:53:26;101861.77;;;8.90;100.00
54022;BME280;39936;51.058;17.220;2023-06-01T02:56:41;101859.45;;;9.00;100.00
54022;BME280;39936;51.058;17.220;2023-06-01T02:59:57;101853.85;;;9.09;100.00
54022;BME280;39936;51.058;17.220;2023-06-01T03:03:14;101849.12;;;9.20;100.00
54022;BME280;39936;51.058;17.220;2023-06-01T03:06:26;101849.75;;;9.37;100.00
54022;BME280;39936;51.058;17.220;2023-06-01T03:09:43;101846.16;;;9.53;100.00
54022;BME280;39936;51.058;17.220;2023-06-01T03:13:07;101844.71;;;9.79;100.00
54022;BME280;39936;51.058;17.220;2023-06-01T03:16:24;101846.05;;;10.03;100.00
54022;BME280;39936;51.058;17.220;2023-06-01T03:20:15;101848.94;;;10.23;100.00
54022;BME280;39936;51.058;17.220;2023-06-01T03:23:48;101844.32;;;10.66;100.00
54022;BME280;39936;51.058;17.220;2023-06-01T03:27:19;101837.59;;;11.04;100.00
54022;BME280;39936;51.058;17.220;2023-06-01T03:30:32;101835.96;;;11.27;100.00
54022;BME280;39936;51.058;17.220;2023-06-01T03:33:59;101830.38;;;11.67;100.00
54022;BME280;39936;51.058;17.220;2023-06-01T03:37:50;101831.77;;;12.12;100.00
54022;BME280;39936;51.058;17.220;2023-06-01T03:41:17;101830.17;;;12.66;99.83
54022;BME280;39936;51.058;17.220;2023-06-01T03:44:36;101826.93;;;12.89;94.42
54022;BME280;39936;51.058;17.220;2023-06-01T03:48:05;101818.19;;;12.88;90.91
54022;BME280;39936;51.058;17.220;2023-06-01T03:51:32;101819.35;;;12.83;88.72
54022;BME280;39936;51.058;17.220;2023-06-01T03:55:04;101825.03;;;12.78;86.86
54022;BME280;39936;51.058;17.220;2023-06-01T03:58:33;101823.30;;;12.62;86.40
54022;BME280;39936;51.058;17.220;2023-06-01T04:01:46;101822.79;;;12.57;86.54
54022;BME280;39936;51.058;17.220;2023-06-01T04:05:16;101818.03;;;12.56;86.74
54022;BME280;39936;51.058;17.220;2023-06-01T04:08:35;101819.62;;;12.56;86.30
54022;BME280;39936;51.058;17.220;2023-06-01T04:11:55;101820.73;;;12.47;86.85
54022;BME280;39936;51.058;17.220;2023-06-01T04:15:31;101803.66;;;12.71;89.18
54022;BME280;39936;51.058;17.220;2023-06-01T04:18:55;101802.71;;;13.90;92.40
54022;BME280;39936;51.058;17.220;2023-06-01T04:22:21;101786.98;;;15.65;90.31
54022;BME280;39936;51.058;17.220;2023-06-01T04:25:36;101774.94;;;17.27;81.12
54022;BME280;39936;51.058;17.220;2023-06-01T04:28:54;101768.92;;;18.19;68.10
54022;BME280;39936;51.058;17.220;2023-06-01T04:32:11;101769.23;;;17.93;65.48
54022;BME280;39936;51.058;17.220;2023-06-01T04:35:36;101770.30;;;17.29;67.60
54022;BME280;39936;51.058;17.220;2023-06-01T04:39:19;101769.48;;;16.62;68.24
54022;BME280;39936;51.058;17.220;2023-06-01T04:42:46;101766.28;;;16.08;70.98
54022;BME280;39936;51.058;17.220;2023-06-01T04:50:13;101762.26;;;15.46;75.19
54022;BME280;39936;51.058;17.220;2023-06-01T04:54:09;101763.47;;;15.55;76.37
54022;BME280;39936;51.058;17.220;2023-06-01T04:57:24;101758.98;;;15.44;76.11
54022;BME280;39936;51.058;17.220;2023-06-01T05:01:03;101766.63;;;15.36;75.98
54022;BME280;39936;51.058;17.220;2023-06-01T05:04:21;101768.13;;;15.34;77.42
54022;BME280;39936;51.058;17.220;2023-06-01T05:07:36;101757.72;;;15.44;76.40
54022;BME280;39936;51.058;17.220;2023-06-01T05:10:53;101757.51;;;15.47;75.83
54022;BME280;39936;51.058;17.220;2023-06-01T05:14:29;101757.66;;;15.70;75.58
54022;BME280;39936;51.058;17.220;2023-06-01T05:18:17;101753.12;;;15.86;74.80
54022;BME280;39936;51.058;17.220;2023-06-01T05:21:30;101743.35;;;16.05;74.09
54022;BME280;39936;51.058;17.220;2023-06-01T05:24:48;101746.55;;;16.22;72.64
54022;BME280;39936;51.058;17.220;2023-06-01T05:28:28;101743.82;;;16.25;72.00
54022;BME280;39936;51.058;17.220;2023-06-01T05:35:36;101737.84;;;16.40;71.14
54022;BME280;39936;51.058;17.220;2023-06-01T05:39:25;101746.00;;;16.67;70.15
54022;BME280;39936;51.058;17.220;2023-06-01T05:42:53;101739.42;;;16.81;68.96
54022;BME280;39936;51.058;17.220;2023-06-01T05:46:18;101742.03;;;16.71;68.19
54022;BME280;39936;51.058;17.220;2023-06-01T05:53:44;101733.67;;;16.65;68.45
54022;BME280;39936;51.058;17.220;2023-06-01T05:57:07;101733.82;;;16.92;68.88
54022;BME280;39936;51.058;17.220;2023-06-01T06:00:48;101731.42;;;17.15;68.17
54022;BME280;39936;51.058;17.220;2023-06-01T06:04:16;101725.52;;;17.47;64.77
54022;BME280;39936;51.058;17.220;2023-06-01T06:08:19;101724.91;;;17.58;62.98
54022;BME280;39936;51.058;17.220;2023-06-01T06:11:32;101716.96;;;17.71;64.41
54022;BME280;39936;51.058;17.220;2023-06-01T06:18:51;101715.17;;;18.16;63.75
54022;BME280;39936;51.058;17.220;2023-06-01T06:22:08;101715.95;;;18.64;62.99
54022;BME280;39936;51.058;17.220;2023-06-01T06:25:36;101710.91;;;19.02;61.67
54022;BME280;39936;51.058;17.220;2023-06-01T06:29:04;101710.53;;;19.33;59.24
54022;BME280;39936;51.058;17.220;2023-06-01T06:32:17;101701.10;;;19.56;58.25
54022;BME280;39936;51.058;17.220;2023-06-01T06:36:06;101693.66;;;19.50;59.30
54022;BME280;39936;51.058;17.220;2023-06-01T06:39:26;101698.64;;;19.99;55.20
54022;BME280;39936;51.058;17.220;2023-06-01T06:42:45;101691.53;;;19.99;53.52
54022;BME280;39936;51.058;17.220;2023-06-01T06:46:05;101700.27;;;19.78;53.09
54022;BME280;39936;51.058;17.220;2023-06-01T06:49:57;101698.42;;;19.62;55.00
54022;BME280;39936;51.058;17.220;2023-06-01T06:53:16;101695.23;;;19.71;54.57
54022;BME280;39936;51.058;17.220;2023-06-01T06:56:46;101693.62;;;19.88;53.80
54022;BME280;39936;51.058;17.220;2023-06-01T07:00:05;101686.59;;;20.03;54.89
54022;BME280;39936;51.058;17.220;2023-06-01T07:03:23;101682.41;;;20.31;54.20
54022;BME280;39936;51.058;17.220;2023-06-01T07:06:51;101678.27;;;20.66;51.98
54022;BME280;39936;51.058;17.220;2023-06-01T07:10:06;101673.55;;;20.92;51.63
54022;BME280;39936;51.058;17.220;2023-06-01T07:13:28;101673.65;;;21.16;50.37
54022;BME280;39936;51.058;17.220;2023-06-01T07:16:55;101667.38;;;21.17;48.17
54022;BME280;39936;51.058;17.220;2023-06-01T07:20:13;101666.45;;;21.01;47.92
54022;BME280;39936;51.058;17.220;2023-06-01T07:23:35;101657.27;;;21.04;47.73
54022;BME280;39936;51.058;17.220;2023-06-01T07:27:13;101658.23;;;21.28;47.36
54022;BME280;39936;51.058;17.220;2023-06-01T07:30:33;101662.43;;;21.54;47.25
54022;BME280;39936;51.058;17.220;2023-06-01T07:33:50;101657.67;;;21.68;46.54
54022;BME280;39936;51.058;17.220;2023-06-01T07:41:11;101656.19;;;22.05;42.69
54022;BME280;39936;51.058;17.220;2023-06-01T07:44:56;101654.60;;;21.94;43.72
54022;BME280;39936;51.058;17.220;2023-06-01T07:48:11;101631.11;;;21.74;43.09
54022;BME280;39936;51.058;17.220;2023-06-01T07:55:27;101645.40;;;21.94;41.96
54022;BME280;39936;51.058;17.220;2023-06-01T07:59:07;101619.64;;;21.82;40.29
54022;BME280;39936;51.058;17.220;2023-06-01T08:03:10;101629.66;;;21.86;40.80
54022;BME280;39936;51.058;17.220;2023-06-01T08:06:25;101645.04;;;22.01;41.26
54022;BME280;39936;51.058;17.220;2023-06-01T08:09:55;101642.47;;;22.05;40.87
54022;BME280;39936;51.058;17.220;2023-06-01T08:13:13;101644.13;;;22.06;42.06
54022;BME280;39936;51.058;17.220;2023-06-01T08:16:37;101642.45;;;22.32;43.89
54022;BME280;39936;51.058;17.220;2023-06-01T08:20:27;101635.02;;;22.39;41.56
54022;BME280;39936;51.058;17.220;2023-06-01T08:23:47;101638.00;;;22.52;39.51
54022;BME280;39936;51.058;17.220;2023-06-01T08:27:20;101627.55;;;22.62;39.42
54022;BME280;39936;51.058;17.220;2023-06-01T08:30:51;101631.55;;;22.63;38.93
54022;BME280;39936;51.058;17.220;2023-06-01T08:34:12;101628.15;;;22.61;37.66
54022;BME280;39936;51.058;17.220;2023-06-01T08:37:34;101631.80;;;22.46;37.49
54022;BME280;39936;51.058;17.220;2023-06-01T08:40:52;101626.77;;;22.54;36.55
54022;BME280;39936;51.058;17.220;2023-06-01T08:44:23;101622.00;;;22.57;36.35
54022;BME280;39936;51.058;17.220;2023-06-01T08:47:58;101610.91;;;22.58;34.98
54022;BME280;39936;51.058;17.220;2023-06-01T08:51:20;101612.88;;;22.69;36.19
54022;BME280;39936;51.058;17.220;2023-06-01T08:54:38;101610.95;;;22.83;35.45
54022;BME280;39936;51.058;17.220;2023-06-01T08:58:30;101603.28;;;22.87;35.73
54022;BME280;39936;51.058;17.220;2023-06-01T09:01:46;101593.44;;;22.86;35.83
54022;BME280;39936;51.058;17.220;2023-06-01T09:05:14;101592.52;;;22.90;34.93
54022;BME280;39936;51.058;17.220;2023-06-01T09:08:45;101578.87;;;23.06;35.19
54022;BME280;39936;51.058;17.220;2023-06-01T09:19:12;101578.63;;;23.10;35.18
54022;BME280;39936;51.058;17.220;2023-06-01T09:26:05;101575.47;;;23.23;34.81
54022;BME280;39936;51.058;17.220;2023-06-01T09:29:26;101567.74;;;23.42;35.36
54022;BME280;39936;51.058;17.220;2023-06-01T09:37:06;101561.09;;;23.61;36.09
54022;BME280;39936;51.058;17.220;2023-06-01T09:40:25;101550.52;;;23.42;36.69
54022;BME280;39936;51.058;17.220;2023-06-01T09:43:44;101555.17;;;23.62;35.42
54022;BME280;39936;51.058;17.220;2023-06-01T09:47:10;101548.66;;;23.64;35.01
54022;BME280;39936;51.058;17.220;2023-06-01T09:50:36;101557.97;;;23.63;35.37
54022;BME280;39936;51.058;17.220;2023-06-01T09:54:26;101550.75;;;23.58;35.70
54022;BME280;39936;51.058;17.220;2023-06-01T09:57:48;101531.41;;;23.64;35.77
54022;BME280;39936;51.058;17.220;2023-06-01T10:01:04;101536.60;;;23.90;36.86
54022;BME280;39936;51.058;17.220;2023-06-01T10:04:26;101535.55;;;23.99;33.89
54022;BME280;39936;51.058;17.220;2023-06-01T10:08:04;101532.65;;;23.99;37.12
54022;BME280;39936;51.058;17.220;2023-06-01T10:11:20;101535.77;;;23.99;35.20
54022;BME280;39936;51.058;17.220;2023-06-01T10:14:39;101528.07;;;24.00;34.64
54022;BME280;39936;51.058;17.220;2023-06-01T10:17:56;101527.90;;;23.81;37.01
54022;BME280;39936;51.058;17.220;2023-06-01T10:21:12;101530.51;;;24.05;35.53
54022;BME280;39936;51.058;17.220;2023-06-01T10:24:56;101526.90;;;24.05;34.60
54022;BME280;39936;51.058;17.220;2023-06-01T10:28:48;101519.27;;;24.08;35.68
54022;BME280;39936;51.058;17.220;2023-06-01T10:35:53;101515.47;;;24.19;35.98
54022;BME280;39936;51.058;17.220;2023-06-01T10:42:38;101504.18;;;24.54;37.30
54022;BME280;39936;51.058;17.220;2023-06-01T10:50:07;101503.12;;;24.78;36.19
54022;BME280;39936;51.058;17.220;2023-06-01T10:53:28;101504.80;;;24.26;36.89
54022;BME280;39936;51.058;17.220;2023-06-01T11:01:04;101503.10;;;23.90;39.63
54022;BME280;39936;51.058;17.220;2023-06-01T11:08:08;101501.72;;;23.93;37.52
54022;BME280;39936;51.058;17.220;2023-06-01T11:15:09;101488.40;;;24.04;36.26
54022;BME280;39936;51.058;17.220;2023-06-01T11:22:09;101487.16;;;24.32;36.88
54022;BME280;39936;51.058;17.220;2023-06-01T11:26:15;101480.16;;;24.43;38.08
54022;BME280;39936;51.058;17.220;2023-06-01T11:29:54;101472.03;;;24.55;40.26
54022;BME280;39936;51.058;17.220;2023-06-01T11:33:28;101461.76;;;24.79;37.94
54022;BME280;39936;51.058;17.220;2023-06-01T11:37:36;101458.59;;;24.99;37.14
54022;BME280;39936;51.058;17.220;2023-06-01T11:41:00;101455.18;;;24.93;35.92
54022;BME280;39936;51.058;17.220;2023-06-01T11:44:19;101453.30;;;24.88;35.57
54022;BME280;39936;51.058;17.220;2023-06-01T11:47:48;101449.74;;;24.71;37.22
54022;BME280;39936;51.058;17.220;2023-06-01T11:51:04;101437.01;;;24.80;35.87
54022;BME280;39936;51.058;17.220;2023-06-01T11:54:25;101444.38;;;24.97;35.02
54022;BME280;39936;51.058;17.220;2023-06-01T11:57:44;101443.48;;;24.85;36.29
54022;BME280;39936;51.058;17.220;2023-06-01T12:01:24;101429.68;;;24.78;37.68
54022;BME280;39936;51.058;17.220;2023-06-01T12:04:42;101431.98;;;24.97;35.22
54022;BME280;39936;51.058;17.220;2023-06-01T12:08:03;101429.53;;;25.03;35.62
54022;BME280;39936;51.058;17.220;2023-06-01T12:11:26;101424.80;;;24.99;36.01
54022;BME280;39936;51.058;17.220;2023-06-01T12:14:49;101422.51;;;24.93;36.10
54022;BME280;39936;51.058;17.220;2023-06-01T12:18:29;101417.99;;;24.83;33.74
54022;BME280;39936;51.058;17.220;2023-06-01T12:22:01;101416.16;;;24.83;35.16
54022;BME280;39936;51.058;17.220;2023-06-01T12:25:33;101411.88;;;24.86;36.44
54022;BME280;39936;51.058;17.220;2023-06-01T12:28:54;101404.57;;;24.81;35.47
54022;BME280;39936;51.058;17.220;2023-06-01T12:32:38;101404.41;;;24.82;36.43
54022;BME280;39936;51.058;17.220;2023-06-01T12:36:08;101406.63;;;24.96;37.17
54022;BME280;39936;51.058;17.220;2023-06-01T12:39:35;101366.84;;;24.98;37.14
54022;BME280;39936;51.058;17.220;2023-06-01T12:43:18;101393.63;;;25.18;36.09
54022;BME280;39936;51.058;17.220;2023-06-01T12:46:34;101390.50;;;25.17;35.90
54022;BME280;39936;51.058;17.220;2023-06-01T12:54:22;101381.08;;;25.22;36.18
54022;BME280;39936;51.058;17.220;2023-06-01T13:01:56;101376.11;;;25.03;36.48
54022;BME280;39936;51.058;17.220;2023-06-01T13:05:49;101367.27;;;25.05;35.91
54022;BME280;39936;51.058;17.220;2023-06-01T13:09:13;101368.68;;;25.22;35.08
54022;BME280;39936;51.058;17.220;2023-06-01T13:12:55;101362.06;;;25.38;35.78
54022;BME280;39936;51.058;17.220;2023-06-01T13:16:13;101360.73;;;25.47;36.63
54022;BME280;39936;51.058;17.220;2023-06-01T13:20:16;101362.32;;;25.56;34.44
54022;BME280;39936;51.058;17.220;2023-06-01T13:23:46;101352.76;;;25.63;34.58
54022;BME280;39936;51.058;17.220;2023-06-01T13:27:08;101348.50;;;25.72;34.42
54022;BME280;39936;51.058;17.220;2023-06-01T13:30:31;101343.77;;;25.76;32.73
54022;BME280;39936;51.058;17.220;2023-06-01T13:33:54;101348.70;;;25.60;33.19
54022;BME280;39936;51.058;17.220;2023-06-01T13:37:26;101340.13;;;25.47;34.30
54022;BME280;39936;51.058;17.220;2023-06-01T13:40:54;101334.41;;;25.56;35.54
54022;BME280;39936;51.058;17.220;2023-06-01T13:44:23;101321.23;;;25.74;31.98
54022;BME280;39936;51.058;17.220;2023-06-01T13:47:49;101320.28;;;25.78;33.75
54022;BME280;39936;51.058;17.220;2023-06-01T13:51:20;101321.35;;;25.89;31.94
54022;BME280;39936;51.058;17.220;2023-06-01T13:54:50;101316.15;;;25.76;32.38
54022;BME280;39936;51.058;17.220;2023-06-01T13:58:19;101317.04;;;25.75;31.56
54022;BME280;39936;51.058;17.220;2023-06-01T14:01:34;101314.14;;;25.72;34.28
54022;BME280;39936;51.058;17.220;2023-06-01T14:04:56;101308.31;;;25.85;33.33
54022;BME280;39936;51.058;17.220;2023-06-01T14:08:18;101308.19;;;26.03;33.21
54022;BME280;39936;51.058;17.220;2023-06-01T14:11:46;101305.35;;;26.12;31.87
54022;BME280;39936;51.058;17.220;2023-06-01T14:15:52;101301.17;;;25.90;33.36
54022;BME280;39936;51.058;17.220;2023-06-01T14:19:10;101297.42;;;25.99;31.32
54022;BME280;39936;51.058;17.220;2023-06-01T14:22:32;101293.94;;;26.00;32.40
54022;BME280;39936;51.058;17.220;2023-06-01T14:25:50;101294.80;;;25.96;34.14
54022;BME280;39936;51.058;17.220;2023-06-01T14:29:14;101289.95;;;25.94;33.53
54022;BME280;39936;51.058;17.220;2023-06-01T14:32:34;101262.48;;;25.78;33.35
54022;BME280;39936;51.058;17.220;2023-06-01T14:35:55;101284.34;;;25.91;32.14
54022;BME280;39936;51.058;17.220;2023-06-01T14:39:29;101279.80;;;25.90;33.47
54022;BME280;39936;51.058;17.220;2023-06-01T14:43:09;101280.93;;;25.92;34.59
54022;BME280;39936;51.058;17.220;2023-06-01T14:47:02;101266.53;;;25.98;34.44
54022;BME280;39936;51.058;17.220;2023-06-01T14:50:19;101271.77;;;26.14;33.43
54022;BME280;39936;51.058;17.220;2023-06-01T14:53:50;101273.05;;;26.11;33.37
54022;BME280;39936;51.058;17.220;2023-06-01T14:57:05;101267.52;;;25.99;32.61
54022;BME280;39936;51.058;17.220;2023-06-01T15:00:27;101257.29;;;25.92;34.18
54022;BME280;39936;51.058;17.220;2023-06-01T15:04:03;101270.45;;;25.97;35.66
54022;BME280;39936;51.058;17.220;2023-06-01T15:07:32;101263.59;;;26.01;35.27
54022;BME280;39936;51.058;17.220;2023-06-01T15:10:55;101238.11;;;25.83;34.77
54022;BME280;39936;51.058;17.220;2023-06-01T15:14:39;101259.15;;;25.90;36.07
54022;BME280;39936;51.058;17.220;2023-06-01T15:17:56;101249.91;;;25.84;35.89
54022;BME280;39936;51.058;17.220;2023-06-01T15:21:26;101241.84;;;25.82;36.45
54022;BME280;39936;51.058;17.220;2023-06-01T15:24:45;101242.05;;;25.67;36.31
54022;BME280;39936;51.058;17.220;2023-06-01T15:28:41;101241.40;;;25.57;37.58
54022;BME280;39936;51.058;17.220;2023-06-01T15:32:13;101214.09;;;25.61;37.19
54022;BME280;39936;51.058;17.220;2023-06-01T15:35:43;101227.00;;;25.67;36.89
54022;BME280;39936;51.058;17.220;2023-06-01T15:39:01;101230.07;;;25.56;36.72
54022;BME280;39936;51.058;17.220;2023-06-01T15:42:33;101228.99;;;25.54;36.72
54022;BME280;39936;51.058;17.220;2023-06-01T15:45:58;101222.09;;;25.58;36.67
54022;BME280;39936;51.058;17.220;2023-06-01T15:49:41;101220.24;;;25.67;36.32
54022;BME280;39936;51.058;17.220;2023-06-01T15:53:41;101209.07;;;25.71;36.59
54022;BME280;39936;51.058;17.220;2023-06-01T15:57:09;101211.14;;;25.72;35.91
54022;BME280;39936;51.058;17.220;2023-06-01T16:00:38;101210.30;;;25.58;36.46
54022;BME280;39936;51.058;17.220;2023-06-01T16:03:58;101206.82;;;25.59;36.96
54022;BME280;39936;51.058;17.220;2023-06-01T16:07:36;101201.41;;;25.65;36.55
54022;BME280;39936;51.058;17.220;2023-06-01T16:11:08;101202.22;;;25.67;36.35
54022;BME280;39936;51.058;17.220;2023-06-01T16:15:12;101196.42;;;25.70;35.45
54022;BME280;39936;51.058;17.220;2023-06-01T16:18:28;101192.61;;;25.60;37.04
54022;BME280;39936;51.058;17.220;2023-06-01T16:21:59;101188.01;;;25.62;35.36
54022;BME280;39936;51.058;17.220;2023-06-01T16:25:28;101189.73;;;25.64;35.21
54022;BME280;39936;51.058;17.220;2023-06-01T16:28:58;101184.89;;;25.61;34.99
54022;BME280;39936;51.058;17.220;2023-06-01T16:32:30;101166.98;;;25.44;35.95
54022;BME280;39936;51.058;17.220;2023-06-01T16:36:04;101183.87;;;25.51;35.36
54022;BME280;39936;51.058;17.220;2023-06-01T16:39:25;101185.33;;;25.38;34.19
54022;BME280;39936;51.058;17.220;2023-06-01T16:43:20;101174.53;;;25.27;33.68
54022;BME280;39936;51.058;17.220;2023-06-01T16:46:58;101181.10;;;25.31;34.05
54022;BME280;39936;51.058;17.220;2023-06-01T16:50:17;101180.98;;;25.25;35.67
54022;BME280;39936;51.058;17.220;2023-06-01T16:53:38;101177.45;;;25.30;35.44
54022;BME280;39936;51.058;17.220;2023-06-01T16:57:17;101169.98;;;25.34;35.79
54022;BME280;39936;51.058;17.220;2023-06-01T17:00:36;101146.40;;;25.25;35.70
54022;BME280;39936;51.058;17.220;2023-06-01T17:04:20;101167.69;;;25.34;35.38
54022;BME280;39936;51.058;17.220;2023-06-01T17:08:01;101170.73;;;25.19;35.58
54022;BME280;39936;51.058;17.220;2023-06-01T17:11:18;101167.37;;;25.11;34.92
54022;BME280;39936;51.058;17.220;2023-06-01T17:22:30;101149.46;;;24.97;36.40
54022;BME280;39936;51.058;17.220;2023-06-01T17:25:48;101166.24;;;25.05;36.26
54022;BME280;39936;51.058;17.220;2023-06-01T17:37:12;101177.11;;;24.61;33.73
54022;BME280;39936;51.058;17.220;2023-06-01T17:44:31;101182.13;;;24.80;32.44
54022;BME280;39936;51.058;17.220;2023-06-01T17:47:45;101178.24;;;24.87;32.08
54022;BME280;39936;51.058;17.220;2023-06-01T17:51:06;101180.48;;;25.09;33.38
54022;BME280;39936;51.058;17.220;2023-06-01T17:54:28;101179.08;;;25.41;31.91
54022;BME280;39936;51.058;17.220;2023-06-01T17:57:47;101172.81;;;25.60;31.42
54022;BME280;39936;51.058;17.220;2023-06-01T18:01:30;101174.08;;;25.44;31.97
54022;BME280;39936;51.058;17.220;2023-06-01T18:04:48;101179.06;;;25.26;32.54
54022;BME280;39936;51.058;17.220;2023-06-01T18:08:18;101179.55;;;25.05;31.76
54022;BME280;39936;51.058;17.220;2023-06-01T18:11:40;101184.55;;;24.72;32.58
54022;BME280;39936;51.058;17.220;2023-06-01T18:15:09;101186.71;;;24.48;33.14
54022;BME280;39936;51.058;17.220;2023-06-01T18:18:28;101186.73;;;24.25;33.23
54022;BME280;39936;51.058;17.220;2023-06-01T18:21:54;101192.80;;;24.03;33.74
54022;BME280;39936;51.058;17.220;2023-06-01T18:25:36;101195.47;;;23.78;34.04
54022;BME280;39936;51.058;17.220;2023-06-01T18:29:04;101183.54;;;23.31;34.15
54022;BME280;39936;51.058;17.220;2023-06-01T18:32:57;101203.54;;;23.02;34.91
54022;BME280;39936;51.058;17.220;2023-06-01T18:36:15;101212.55;;;22.61;35.22
54022;BME280;39936;51.058;17.220;2023-06-01T18:40:01;101218.15;;;22.30;35.97
54022;BME280;39936;51.058;17.220;2023-06-01T18:43:17;101221.21;;;21.97;36.58
54022;BME280;39936;51.058;17.220;2023-06-01T18:46:40;101224.05;;;21.65;37.27
54022;BME280;39936;51.058;17.220;2023-06-01T18:49:54;101230.19;;;21.34;37.89
54022;BME280;39936;51.058;17.220;2023-06-01T18:53:13;101232.66;;;21.01;38.56
54022;BME280;39936;51.058;17.220;2023-06-01T18:56:32;101237.01;;;20.77;39.07
54022;BME280;39936;51.058;17.220;2023-06-01T19:08:29;101252.19;;;20.23;40.49
54022;BME280;39936;51.058;17.220;2023-06-01T19:11:46;101262.14;;;20.02;40.60
54022;BME280;39936;51.058;17.220;2023-06-01T19:15:14;101264.00;;;19.84;41.22
54022;BME280;39936;51.058;17.220;2023-06-01T19:18:35;101275.78;;;19.72;41.56
54022;BME280;39936;51.058;17.220;2023-06-01T19:22:10;101279.35;;;19.55;41.34
54022;BME280;39936;51.058;17.220;2023-06-01T19:25:51;101285.71;;;19.48;41.33
54022;BME280;39936;51.058;17.220;2023-06-01T19:29:19;101288.09;;;19.53;41.81
54022;BME280;39936;51.058;17.220;2023-06-01T19:32:48;101286.34;;;19.51;42.11
54022;BME280;39936;51.058;17.220;2023-06-01T19:39:58;101292.22;;;19.32;44.67
54022;BME280;39936;51.058;17.220;2023-06-01T19:46:45;101300.71;;;19.08;45.46
54022;BME280;39936;51.058;17.220;2023-06-01T19:53:38;101303.01;;;18.77;47.24
54022;BME280;39936;51.058;17.220;2023-06-01T19:57:22;101310.28;;;18.62;47.51
54022;BME280;39936;51.058;17.220;2023-06-01T20:00:39;101316.12;;;18.46;48.57
54022;BME280;39936;51.058;17.220;2023-06-01T20:03:55;101322.55;;;18.32;48.73
54022;BME280;39936;51.058;17.220;2023-06-01T20:07:24;101323.95;;;18.17;49.44
54022;BME280;39936;51.058;17.220;2023-06-01T20:11:03;101326.23;;;18.04;50.47
54022;BME280;39936;51.058;17.220;2023-06-01T20:15:06;101326.19;;;17.94;50.75